createdAt,value
2019-05-21T00:00:46.408Z,17.48
2019-05-21T00:03:21.870Z,18.12
2019-05-21T00:06:04.735Z,17.42
2019-05-21T00:08:41.159Z,17.40
2019-05-21T00:11:23.754Z,17.95
2019-05-21T00:14:12.478Z,18.12
2019-05-21T00:16:48.023Z,19.70
2019-05-21T00:19:37.048Z,19.23
2019-05-21T00:22:19.765Z,20.12
2019-05-21T00:24:56.236Z,21.60
2019-05-21T00:27:38.410Z,21.05
2019-05-21T00:31:08.224Z,21.20
2019-05-21T00:34:45.565Z,20.57
2019-05-21T00:38:22.850Z,20.97
2019-05-21T00:42:05.814Z,22.25
2019-05-21T00:44:44.095Z,20.82
2019-05-21T00:47:27.769Z,21.00
2019-05-21T00:50:17.925Z,21.07
2019-05-21T00:53:00.404Z,22.00
2019-05-21T00:55:36.106Z,20.08
2019-05-21T00:58:18.605Z,18.80
2019-05-21T01:01:00.530Z,19.50
2019-05-21T01:03:49.258Z,17.82
2019-05-21T01:06:24.926Z,16.90
2019-05-21T01:09:07.493Z,17.12
2019-05-21T01:11:43.315Z,17.57
2019-05-21T01:14:25.600Z,16.30
2019-05-21T01:17:08.520Z,17.27
2019-05-21T01:19:44.646Z,17.50
2019-05-21T01:22:26.214Z,17.85
2019-05-21T01:25:08.648Z,16.57
2019-05-21T01:27:44.910Z,16.62
2019-05-21T01:30:27.389Z,16.27
2019-05-21T01:33:16.920Z,16.82
2019-05-21T01:35:58.806Z,16.17
2019-05-21T01:38:35.201Z,16.42
2019-05-21T01:41:17.176Z,16.75
2019-05-21T01:43:53.129Z,17.12
2019-05-21T01:46:34.885Z,16.67
2019-05-21T01:49:11.111Z,17.37
2019-05-21T01:51:53.867Z,18.65
2019-05-21T01:54:31.390Z,17.60
2019-05-21T01:57:14.770Z,17.30
2019-05-21T01:59:57.466Z,16.60
2019-05-21T02:02:46.356Z,16.93
2019-05-21T02:05:32.683Z,15.83
2019-05-21T02:08:07.110Z,16.35
2019-05-21T02:10:50.759Z,24.25
2019-05-21T02:16:09.194Z,18.15
2019-05-21T02:18:44.894Z,18.05
2019-05-21T02:21:27.767Z,17.35
2019-05-21T02:24:04.285Z,18.45
2019-05-21T02:26:46.029Z,17.80
2019-05-21T02:29:28.150Z,16.75
2019-05-21T02:32:10.480Z,16.45
2019-05-21T02:34:46.638Z,16.70
2019-05-21T02:37:22.605Z,15.80
2019-05-21T02:40:05.778Z,16.20
2019-05-21T02:42:41.886Z,16.65
2019-05-21T02:45:24.505Z,15.90
2019-05-21T02:48:13.175Z,16.37
2019-05-21T02:50:49.631Z,15.65
2019-05-21T02:53:34.509Z,16.80
2019-05-21T02:56:09.989Z,17.25
2019-05-21T02:58:52.453Z,17.25
2019-05-21T03:01:41.976Z,18.00
2019-05-21T03:04:18.035Z,17.12
2019-05-21T03:07:03.106Z,17.55
2019-05-21T03:09:39.175Z,17.62
2019-05-21T03:12:21.902Z,18.17
2019-05-21T03:14:57.766Z,19.20
2019-05-21T03:17:40.585Z,19.65
2019-05-21T03:20:23.382Z,20.95
2019-05-21T03:23:05.637Z,21.47
2019-05-21T03:25:42.086Z,20.05
2019-05-21T03:28:24.773Z,22.13
2019-05-21T03:31:00.885Z,21.27
2019-05-21T03:33:44.395Z,21.37
2019-05-21T03:36:32.522Z,20.15
2019-05-21T03:39:05.537Z,19.60
2019-05-21T03:41:41.892Z,20.10
2019-05-21T03:44:25.228Z,19.60
2019-05-21T03:47:01.967Z,18.70
2019-05-21T03:49:45.432Z,22.87
2019-05-21T03:52:28.563Z,22.80
2019-05-21T03:55:12.026Z,23.10
2019-05-21T03:57:48.460Z,22.40
2019-05-21T04:00:30.891Z,22.25
2019-05-21T04:03:07.257Z,23.07
2019-05-21T04:05:49.829Z,22.77
2019-05-21T04:08:32.496Z,24.07
2019-05-21T04:11:14.683Z,27.27
2019-05-21T04:13:51.116Z,28.25
2019-05-21T04:16:43.924Z,31.75
2019-05-21T04:19:34.856Z,30.97
2019-05-21T04:22:18.191Z,30.50
2019-05-21T04:25:01.101Z,32.30
2019-05-21T04:27:43.550Z,33.63
2019-05-21T04:30:19.716Z,33.38
2019-05-21T04:33:02.407Z,33.55
2019-05-21T04:35:45.389Z,33.53
2019-05-21T04:38:27.648Z,32.13
2019-05-21T04:41:04.287Z,32.38
2019-05-21T04:43:46.953Z,32.98
2019-05-21T04:46:22.994Z,32.38
2019-05-21T04:49:05.482Z,30.92
2019-05-21T04:51:41.320Z,32.45
2019-05-21T04:54:23.397Z,32.65
2019-05-21T04:56:59.664Z,34.75
2019-05-21T04:59:42.250Z,34.18
2019-05-21T05:02:18.210Z,35.40
2019-05-21T05:04:54.661Z,35.43
2019-05-21T05:07:43.498Z,34.10
2019-05-21T05:10:19.560Z,31.85
2019-05-21T05:13:01.682Z,33.23
2019-05-21T05:15:43.665Z,32.60
2019-05-21T05:18:20.180Z,31.33
2019-05-21T05:21:02.784Z,32.48
2019-05-21T05:23:39.274Z,33.33
2019-05-21T05:26:21.297Z,32.98
2019-05-21T05:28:57.742Z,31.90
2019-05-21T05:31:41.013Z,33.23
2019-05-21T05:34:17.398Z,34.27
2019-05-21T05:36:59.345Z,33.53
2019-05-21T05:39:42.289Z,34.03
2019-05-21T05:42:18.844Z,34.88
2019-05-21T05:44:54.671Z,32.13
2019-05-21T05:47:37.819Z,33.00
2019-05-21T05:50:15.497Z,33.60
2019-05-21T05:52:57.990Z,32.80
2019-05-21T05:55:47.071Z,33.92
2019-05-21T05:58:29.458Z,32.55
2019-05-21T06:01:12.099Z,32.17
2019-05-21T06:03:54.465Z,33.73
2019-05-21T06:06:30.960Z,33.40
2019-05-21T06:09:14.218Z,32.90
2019-05-21T06:11:57.137Z,33.98
2019-05-21T06:14:39.383Z,35.20
2019-05-21T06:17:21.425Z,34.78
2019-05-21T06:20:10.382Z,33.75
2019-05-21T06:22:46.537Z,34.63
2019-05-21T06:25:31.448Z,33.65
2019-05-21T06:28:14.399Z,34.90
2019-05-21T06:30:50.529Z,35.63
2019-05-21T06:33:33.395Z,35.03
2019-05-21T06:36:15.848Z,35.35
2019-05-21T06:38:58.018Z,37.95
2019-05-21T06:41:40.193Z,39.85
2019-05-21T06:44:22.584Z,41.73
2019-05-21T06:46:59.063Z,42.60
2019-05-21T06:49:41.922Z,43.25
2019-05-21T06:52:24.819Z,45.58
2019-05-21T06:55:00.396Z,46.92
2019-05-21T06:57:43.125Z,46.73
2019-05-21T07:00:32.879Z,47.27
2019-05-21T07:03:08.372Z,45.17
2019-05-21T07:05:58.812Z,48.45
2019-05-21T07:08:35.387Z,46.77
2019-05-21T07:11:11.131Z,45.17
2019-05-21T07:13:53.741Z,45.95
2019-05-21T07:16:29.803Z,45.33
2019-05-21T07:19:12.034Z,43.52
2019-05-21T07:21:48.459Z,42.30
2019-05-21T07:24:31.584Z,39.92
2019-05-21T07:27:14.357Z,40.75
2019-05-21T07:29:56.796Z,39.33
2019-05-21T07:32:32.936Z,38.80
2019-05-21T07:35:09.055Z,39.85
2019-05-21T07:37:52.203Z,40.20
2019-05-21T07:40:35.650Z,40.73
2019-05-21T07:43:11.840Z,39.92
2019-05-21T07:45:55.087Z,41.28
2019-05-21T07:48:37.908Z,38.30
2019-05-21T07:51:27.688Z,37.85
2019-05-21T07:54:10.633Z,36.48
2019-05-21T07:56:47.010Z,39.13
2019-05-21T07:59:29.620Z,40.63
2019-05-21T08:02:05.461Z,38.70
2019-05-21T08:04:48.337Z,37.73
2019-05-21T08:07:24.828Z,37.88
2019-05-21T08:10:07.307Z,35.80
2019-05-21T08:12:43.767Z,34.83
2019-05-21T08:15:27.412Z,35.33
2019-05-21T08:18:03.931Z,33.20
2019-05-21T08:20:46.846Z,32.13
2019-05-21T08:23:23.167Z,33.18
2019-05-21T08:26:05.784Z,31.97
2019-05-21T08:28:48.847Z,28.70
2019-05-21T08:31:25.203Z,27.10
2019-05-21T08:34:07.893Z,25.85
2019-05-21T08:36:49.793Z,23.80
2019-05-21T08:39:31.835Z,25.45
2019-05-21T08:42:14.621Z,26.27
2019-05-21T08:44:50.881Z,25.40
2019-05-21T08:47:40.372Z,25.30
2019-05-21T08:50:16.358Z,20.97
2019-05-21T08:52:58.474Z,22.17
2019-05-21T08:55:34.394Z,21.55
2019-05-21T08:58:17.003Z,21.42
2019-05-21T09:01:06.553Z,21.20
2019-05-21T09:03:49.859Z,19.82
2019-05-21T09:06:25.909Z,18.55
2019-05-21T09:09:08.977Z,17.62
2019-05-21T09:11:45.388Z,21.90
2019-05-21T09:14:28.787Z,20.45
2019-05-21T09:17:04.910Z,15.58
2019-05-21T09:19:47.189Z,14.00
2019-05-21T09:22:25.219Z,12.88
2019-05-21T09:25:07.760Z,12.75
2019-05-21T09:27:44.767Z,14.68
2019-05-21T09:30:28.234Z,14.53
2019-05-21T09:35:45.955Z,13.88
2019-05-21T09:38:21.982Z,15.95
2019-05-21T09:41:04.332Z,15.05
2019-05-21T09:43:47.473Z,12.90
2019-05-21T09:46:23.610Z,12.63
2019-05-21T09:49:06.020Z,12.33
2019-05-21T09:51:47.589Z,10.03
2019-05-21T09:54:30.428Z,7.62
2019-05-21T09:57:16.080Z,7.62
2019-05-21T09:59:56.235Z,9.25
2019-05-21T10:02:42.887Z,9.08
2019-05-21T10:05:18.954Z,8.00
2019-05-21T10:08:03.906Z,8.60
2019-05-21T10:10:40.050Z,6.47
2019-05-21T10:13:23.388Z,5.92
2019-05-21T10:16:01.417Z,5.40
2019-05-21T10:18:44.283Z,5.70
2019-05-21T10:21:21.284Z,6.12
2019-05-21T10:24:04.208Z,5.83
2019-05-21T10:26:46.979Z,5.87
2019-05-21T10:29:16.433Z,5.92
2019-05-21T10:31:59.371Z,6.17
2019-05-21T10:34:35.825Z,5.35
2019-05-21T10:37:17.520Z,5.60
2019-05-21T10:39:53.630Z,5.37
2019-05-21T10:42:35.668Z,5.10
2019-05-21T10:45:20.574Z,4.95
2019-05-21T10:48:03.352Z,5.25
2019-05-21T10:50:39.691Z,5.30
2019-05-21T10:53:22.097Z,5.15
2019-05-21T10:55:58.089Z,5.80
2019-05-21T10:58:39.903Z,5.35
2019-05-21T11:01:20.916Z,4.95
2019-05-21T11:04:16.867Z,4.92
2019-05-21T11:06:53.578Z,5.25
2019-05-21T11:09:36.052Z,5.10
2019-05-21T11:12:19.405Z,5.30
2019-05-21T11:15:01.840Z,5.12
2019-05-21T11:17:53.306Z,4.58
2019-05-21T11:20:23.675Z,4.50
2019-05-21T11:22:59.178Z,5.00
2019-05-21T11:25:41.061Z,4.90
2019-05-21T11:28:16.785Z,4.12
2019-05-21T11:30:59.573Z,4.33
2019-05-21T11:33:42.450Z,4.67
2019-05-21T11:36:18.039Z,4.65
2019-05-21T11:39:01.206Z,4.00
2019-05-21T11:41:37.125Z,4.42
2019-05-21T11:44:20.023Z,4.00
2019-05-21T11:47:01.760Z,4.03
2019-05-21T11:49:38.041Z,3.85
2019-05-21T11:52:20.846Z,4.08
2019-05-21T11:55:03.840Z,4.05
2019-05-21T11:57:46.310Z,3.52
2019-05-21T12:00:24.995Z,3.98
2019-05-21T12:03:07.597Z,4.12
2019-05-21T12:05:44.939Z,4.00
2019-05-21T12:08:28.247Z,3.72
2019-05-21T12:11:11.048Z,3.87
2019-05-21T12:14:00.532Z,3.80
2019-05-21T12:16:43.890Z,4.15
2019-05-21T12:19:20.421Z,4.12
2019-05-21T12:22:02.450Z,4.10
2019-05-21T12:24:38.900Z,4.22
2019-05-21T12:27:21.578Z,4.05
2019-05-21T12:30:03.959Z,4.20
2019-05-21T12:32:46.712Z,4.08
2019-05-21T12:35:23.289Z,5.22
2019-05-21T12:38:06.333Z,3.90
2019-05-21T12:40:42.820Z,4.17
2019-05-21T12:43:26.040Z,4.05
2019-05-21T12:46:09.230Z,4.12
2019-05-21T12:48:45.028Z,4.17
2019-05-21T12:51:28.219Z,3.30
2019-05-21T12:54:17.517Z,3.72
2019-05-21T12:56:59.582Z,3.85
2019-05-21T12:59:35.744Z,3.92
2019-05-21T13:02:18.648Z,3.90
2019-05-21T13:04:55.195Z,3.58
2019-05-21T13:07:37.459Z,4.10
2019-05-21T13:10:15.781Z,3.85
2019-05-21T13:12:57.664Z,4.10
2019-05-21T13:15:33.173Z,3.10
2019-05-21T13:18:15.408Z,3.60
2019-05-21T13:20:51.395Z,3.90
2019-05-21T13:23:33.634Z,3.52
2019-05-21T13:26:10.754Z,3.60
2019-05-21T13:28:52.505Z,3.60
2019-05-21T13:31:35.055Z,4.10
2019-05-21T13:34:17.969Z,4.27
2019-05-21T13:36:53.870Z,3.75
2019-05-21T13:39:49.599Z,4.25
2019-05-21T13:42:22.698Z,5.87
2019-05-21T13:44:58.330Z,10.25
2019-05-21T13:47:40.856Z,3.67
2019-05-21T13:50:23.702Z,3.67
2019-05-21T13:52:59.935Z,4.95
2019-05-21T13:55:35.850Z,6.75
2019-05-21T13:58:19.022Z,4.50
2019-05-21T14:01:02.520Z,5.17
2019-05-21T14:06:26.758Z,5.90
2019-05-21T14:09:03.016Z,4.53
2019-05-21T14:11:39.482Z,5.15
2019-05-21T14:14:22.420Z,4.97
2019-05-21T14:17:11.501Z,5.33
2019-05-21T14:19:47.284Z,4.40
2019-05-21T14:22:30.098Z,4.37
2019-05-21T14:25:09.654Z,4.85
2019-05-21T14:27:51.926Z,4.60
2019-05-21T14:30:34.502Z,4.20
2019-05-21T14:33:10.458Z,4.63
2019-05-21T14:35:52.493Z,5.70
2019-05-21T14:38:28.977Z,4.45
2019-05-21T14:41:11.025Z,5.58
2019-05-21T14:43:53.590Z,5.00
2019-05-21T14:46:36.315Z,5.17
2019-05-21T14:49:18.701Z,5.10
2019-05-21T14:51:54.503Z,5.28
2019-05-21T14:54:37.197Z,4.87
2019-05-21T14:57:19.302Z,5.03
2019-05-21T14:59:55.821Z,4.83
2019-05-21T15:02:38.938Z,5.62
2019-05-21T15:05:22.111Z,5.33
2019-05-21T15:07:58.188Z,5.45
2019-05-21T15:10:47.247Z,5.17
2019-05-21T15:13:11.948Z,5.72
2019-05-21T15:15:53.848Z,4.97
2019-05-21T15:18:36.259Z,5.78
2019-05-21T15:21:20.551Z,5.83
2019-05-21T15:24:03.353Z,5.37
2019-05-21T15:26:46.179Z,4.95
2019-05-21T15:29:21.827Z,5.40
2019-05-21T15:31:57.685Z,5.17
2019-05-21T15:34:40.103Z,5.70
2019-05-21T15:37:16.066Z,5.53
2019-05-21T15:39:58.407Z,5.37
2019-05-21T15:42:52.389Z,6.28
2019-05-21T15:45:25.713Z,6.65
2019-05-21T15:48:08.130Z,5.60
2019-05-21T15:50:44.628Z,7.70
2019-05-21T15:53:27.964Z,6.22
2019-05-21T15:56:16.326Z,6.40
2019-05-21T15:58:59.340Z,7.37
2019-05-21T16:01:34.916Z,6.70
2019-05-21T16:04:24.171Z,7.55
2019-05-21T16:07:06.805Z,7.72
2019-05-21T16:09:56.236Z,7.83
2019-05-21T16:12:32.146Z,7.37
2019-05-21T16:15:14.870Z,7.72
2019-05-21T16:17:57.584Z,8.80
2019-05-21T16:20:42.633Z,7.50
2019-05-21T16:23:18.362Z,7.83
2019-05-21T16:26:01.636Z,7.33
2019-05-21T16:28:38.170Z,9.23
2019-05-21T16:31:21.122Z,9.65
2019-05-21T16:33:56.778Z,9.50
2019-05-21T16:36:33.239Z,9.30
2019-05-21T16:39:18.462Z,9.50
2019-05-21T16:41:54.324Z,8.90
2019-05-21T16:44:30.372Z,9.13
2019-05-21T16:47:06.605Z,9.13
2019-05-21T16:49:42.951Z,9.25
2019-05-21T16:52:19.446Z,10.68
2019-05-21T16:55:02.141Z,9.80
2019-05-21T16:57:55.696Z,11.37
2019-05-21T17:00:29.452Z,12.95
2019-05-21T17:03:11.735Z,14.50
2019-05-21T17:06:01.813Z,14.53
2019-05-21T17:08:44.777Z,14.95
2019-05-21T17:11:21.450Z,21.02
2019-05-21T17:14:04.696Z,18.55
2019-05-21T17:16:40.504Z,15.45
2019-05-21T17:19:23.508Z,13.83
2019-05-21T17:22:06.073Z,14.58
2019-05-21T17:24:42.577Z,17.35
2019-05-21T17:27:25.109Z,15.35
2019-05-21T17:30:00.848Z,14.60
2019-05-21T17:32:43.565Z,13.22
2019-05-21T17:35:32.573Z,12.47
2019-05-21T17:38:08.619Z,12.35
2019-05-21T17:40:51.409Z,12.80
2019-05-21T17:43:34.363Z,14.20
2019-05-21T17:46:17.233Z,12.37
2019-05-21T17:48:59.836Z,14.35
2019-05-21T17:51:36.576Z,17.00
2019-05-21T17:54:12.917Z,15.70
2019-05-21T17:56:49.477Z,15.85
2019-05-21T17:59:25.920Z,19.70
2019-05-21T18:02:10.695Z,18.80
2019-05-21T18:04:47.823Z,20.50
2019-05-21T18:07:31.637Z,15.80
2019-05-21T18:10:07.484Z,20.57
2019-05-21T18:12:51.139Z,19.57
2019-05-21T18:15:34.287Z,16.50
2019-05-21T18:18:17.223Z,17.85
2019-05-21T18:20:53.961Z,17.00
2019-05-21T18:23:30.418Z,17.35
2019-05-21T18:26:13.658Z,18.95
2019-05-21T18:28:49.603Z,18.95
2019-05-21T18:31:32.480Z,17.55
2019-05-21T18:34:22.091Z,19.32
2019-05-21T18:36:58.288Z,18.55
2019-05-21T18:39:40.995Z,18.27
2019-05-21T18:42:23.753Z,18.13
2019-05-21T18:44:59.434Z,21.63
2019-05-21T18:47:43.016Z,21.27
2019-05-21T18:53:03.776Z,36.73
2019-05-21T18:55:46.761Z,44.00
2019-05-21T18:58:29.788Z,29.72
2019-05-21T19:01:07.521Z,24.27
2019-05-21T19:03:50.158Z,23.80
2019-05-21T19:06:33.312Z,21.02
2019-05-21T19:09:16.310Z,20.95
2019-05-21T19:11:52.805Z,17.70
2019-05-21T19:14:35.805Z,18.48
2019-05-21T19:17:11.997Z,17.62
2019-05-21T19:19:56.339Z,17.45
2019-05-21T19:22:32.657Z,19.02
2019-05-21T19:25:17.767Z,19.20
2019-05-21T19:27:54.219Z,19.20
2019-05-21T19:30:37.667Z,18.73
2019-05-21T19:33:13.866Z,18.25
2019-05-21T19:35:56.495Z,19.90
2019-05-21T19:38:33.177Z,19.05
2019-05-21T19:41:15.434Z,20.88
2019-05-21T19:43:54.432Z,20.02
2019-05-21T19:46:37.051Z,19.48
2019-05-21T19:49:20.037Z,21.02
2019-05-21T19:51:56.574Z,23.07
2019-05-21T19:54:39.453Z,21.70
2019-05-21T19:57:15.628Z,24.25
2019-05-21T19:59:58.104Z,21.70
2019-05-21T20:02:41.205Z,20.40
2019-05-21T20:05:18.079Z,20.62
2019-05-21T20:08:01.479Z,19.65
2019-05-21T20:10:50.781Z,21.60
2019-05-21T20:13:39.809Z,21.70
2019-05-21T20:16:25.368Z,21.15
2019-05-21T20:19:02.122Z,19.80
2019-05-21T20:21:45.985Z,24.87
2019-05-21T20:24:29.898Z,26.95
2019-05-21T20:27:13.606Z,24.43
2019-05-21T20:29:49.789Z,21.10
2019-05-21T20:32:29.083Z,22.32
2019-05-21T20:35:13.705Z,21.50
2019-05-21T20:38:03.411Z,22.37
2019-05-21T20:40:39.250Z,23.50
2019-05-21T20:43:22.096Z,24.05
2019-05-21T20:46:04.339Z,24.57
2019-05-21T20:48:47.668Z,25.30
2019-05-21T20:51:24.376Z,28.27
2019-05-21T20:54:08.237Z,29.35
2019-05-21T20:56:45.164Z,28.52
2019-05-21T20:59:29.455Z,26.48
2019-05-21T21:02:13.982Z,26.48
2019-05-21T21:04:49.902Z,27.48
2019-05-21T21:07:33.275Z,26.33
2019-05-21T21:10:18.545Z,26.62
2019-05-21T21:13:01.623Z,26.62
2019-05-21T21:15:44.842Z,27.10
2019-05-21T21:18:21.400Z,27.85
2019-05-21T21:20:58.471Z,31.30
2019-05-21T21:23:40.935Z,32.03
2019-05-21T21:26:17.736Z,34.60
2019-05-21T21:29:00.622Z,31.82
2019-05-21T21:31:36.981Z,30.62
2019-05-21T21:34:20.702Z,31.73
2019-05-21T21:36:57.724Z,29.37
2019-05-21T21:39:40.650Z,28.55
2019-05-21T21:42:16.719Z,30.90
2019-05-21T21:45:01.497Z,28.00
2019-05-21T21:47:38.470Z,27.85
2019-05-21T21:50:22.548Z,27.35
2019-05-21T21:52:59.258Z,25.57
2019-05-21T21:55:41.942Z,26.45
2019-05-21T21:58:18.483Z,25.50
2019-05-21T22:01:05.564Z,24.82
2019-05-21T22:03:52.782Z,24.80
2019-05-21T22:06:30.172Z,23.22
2019-05-21T22:09:15.039Z,24.55
2019-05-21T22:11:52.730Z,24.67
2019-05-21T22:14:50.216Z,23.95
2019-05-21T22:17:24.735Z,24.90
2019-05-21T22:20:15.086Z,24.35
2019-05-21T22:22:51.024Z,23.62
2019-05-21T22:25:33.419Z,24.45
2019-05-21T22:28:09.992Z,23.32
2019-05-21T22:30:53.001Z,23.80
2019-05-21T22:33:36.496Z,23.85
2019-05-21T22:36:13.361Z,23.47
2019-05-21T22:38:50.678Z,24.27
2019-05-21T22:41:33.144Z,24.05
2019-05-21T22:44:14.924Z,22.85
2019-05-21T22:46:51.421Z,22.90
2019-05-21T22:49:34.153Z,22.45
2019-05-21T22:52:17.191Z,22.83
2019-05-21T22:54:53.195Z,22.87
2019-05-21T22:57:36.280Z,21.87
2019-05-21T23:00:13.442Z,21.70
2019-05-21T23:02:56.385Z,21.68
2019-05-21T23:05:45.400Z,23.45
2019-05-21T23:08:22.119Z,22.65
2019-05-21T23:11:04.856Z,24.72
2019-05-21T23:13:47.746Z,22.80
2019-05-21T23:16:24.420Z,22.22
2019-05-21T23:19:07.528Z,22.45
2019-05-21T23:21:44.300Z,22.75
2019-05-21T23:24:28.836Z,23.18
2019-05-21T23:27:07.177Z,23.10
2019-05-21T23:29:50.929Z,22.82
2019-05-21T23:32:29.320Z,23.18
2019-05-21T23:35:16.100Z,23.65
2019-05-21T23:37:52.511Z,23.77
2019-05-21T23:40:34.914Z,23.80
2019-05-21T23:43:13.120Z,24.95
2019-05-21T23:45:55.097Z,24.20
2019-05-21T23:48:31.679Z,24.40
2019-05-21T23:51:14.516Z,24.32
2019-05-21T23:53:50.919Z,24.18
2019-05-21T23:56:33.482Z,24.80
2019-05-21T23:59:09.690Z,24.40
